Pagina principale
METAR-TAF:

METAR-TAF

Aeroporti :

Bolzano, Italia

latitudine: 46-28N, longitudine: 011-20E, altezza: 262 m

Osservazione

Il bollettino è stato emesso 6 ore e 25 minuti fa, alle 21:50 UTC
Vento 3 kt da nord/nord-est
Temperature -2°C
Umidità 74%
Pressione 1016 hPa
Visibilità 10 km o più
Nubi sparse ad un'altezza di 11000 ft

METAR: LIPB 132150Z 03003KT 9999 SCT110 M02/M06 Q1016

Ora: 05:15 (04:15 UTC)

Previsione

Il bollettino è stato emesso 11 ore e 15 minuti fa, alle 17:00 UTC
Previsione valida dal 13 alle 18 UTC al 14 alle 18 UTC
Vento 5 kt da direzioni variabili
Visibilità 10 km o più
Poco nuvoloso ad un'altezza di 3000 ft

TAF: LIPB 131700Z 1318/1418 VRB05KT 9999 FEW030

Osservazioni e previsioni meteorologiche di più di 4000 aeroporti (messaggi METAR e TAF).

Le stazioni disponibili sono rappresentate dai dischi gialli e rossi sulla carta.

Puntare il mouse per vedere il nome della stazione.

Clicca sopra per visualizzare le osservazioni e previsioni meteorologiche.

Per cambiare la mappa : fare clic sui pulsanti verdi con una croce nera per ingrandire, il pulsante verde con un trattino per diminuire, o sulla freccia verde per le mappe adiacenti.


METAR-TAF: